AMX702 MMMD-MMMZ
Flight info
| Callsign | AMX702 |
|---|---|
| Flight time | 2h 27m |
| Altitude | 36000 |
| Route | PERGO2C PERGO UT23 TAM UJ14 TMN UT147 AGU UJ33 SARIO |
| Aircraft | B737/M-SDE2E3FGHIRWXY/LB1 |
Departure
| Time | 2026-05-03 20:51 |
|---|---|
| Airport | Manuel Crescencio Rejón International Airport (MMMD) |
Arrival
| Time | 2026-05-03 23:19 |
|---|---|
| Airport | General Rafael Buelna International Airport (MMMZ) |
| Time | Latitude | Longitude | Altitude | Speed | Heading |
|---|---|---|---|---|---|
| 2026-05-03 20:17 | 20.93369 | -89.66196 | 42 ft | 0 kts | 271° |
| 2026-05-03 20:21 | 20.93369 | -89.66195 | 42 ft | 0 kts | 271° |
| 2026-05-03 20:37 | 20.93369 | -89.66194 | 43 ft | 0 kts | 271° |
| 2026-05-03 20:41 | 20.93370 | -89.66177 | 39 ft | 4 kts | 259° |
| 2026-05-03 20:41 | 20.93379 | -89.66151 | 40 ft | 4 kts | 229° |
| 2026-05-03 20:42 | 20.93399 | -89.66134 | 41 ft | 4 kts | 201° |
| 2026-05-03 20:42 | 20.93417 | -89.66129 | 44 ft | 1 kts | 181° |
| 2026-05-03 20:44 | 20.93407 | -89.66129 | 42 ft | 4 kts | 181° |
| 2026-05-03 20:44 | 20.93358 | -89.66131 | 43 ft | 9 kts | 181° |
| 2026-05-03 20:45 | 20.93295 | -89.66133 | 43 ft | 9 kts | 181° |
| 2026-05-03 20:45 | 20.93235 | -89.66118 | 43 ft | 9 kts | 146° |
| 2026-05-03 20:45 | 20.93222 | -89.66058 | 43 ft | 9 kts | 91° |
| 2026-05-03 20:45 | 20.93219 | -89.65996 | 43 ft | 8 kts | 105° |
| 2026-05-03 20:46 | 20.93175 | -89.65954 | 43 ft | 9 kts | 150° |
| 2026-05-03 20:46 | 20.93117 | -89.65918 | 43 ft | 10 kts | 150° |
| 2026-05-03 20:46 | 20.93047 | -89.65880 | 43 ft | 12 kts | 152° |
| 2026-05-03 20:46 | 20.92969 | -89.65835 | 42 ft | 14 kts | 152° |
| 2026-05-03 20:47 | 20.92882 | -89.65790 | 42 ft | 14 kts | 165° |
| 2026-05-03 20:47 | 20.92779 | -89.65786 | 39 ft | 15 kts | 181° |
| 2026-05-03 20:47 | 20.92676 | -89.65790 | 40 ft | 15 kts | 181° |
| 2026-05-03 20:47 | 20.92576 | -89.65792 | 42 ft | 14 kts | 181° |
| 2026-05-03 20:48 | 20.92481 | -89.65794 | 42 ft | 13 kts | 181° |
| 2026-05-03 20:48 | 20.92389 | -89.65795 | 42 ft | 13 kts | 181° |
| 2026-05-03 20:48 | 20.92301 | -89.65797 | 43 ft | 13 kts | 181° |
| 2026-05-03 20:48 | 20.92214 | -89.65798 | 44 ft | 12 kts | 181° |
| 2026-05-03 20:49 | 20.92130 | -89.65795 | 41 ft | 12 kts | 162° |
| 2026-05-03 20:49 | 20.92057 | -89.65753 | 44 ft | 12 kts | 151° |
| 2026-05-03 20:49 | 20.91996 | -89.65782 | 44 ft | 7 kts | 257° |
| 2026-05-03 20:49 | 20.92012 | -89.65799 | 42 ft | 0 kts | 352° |
| 2026-05-03 20:50 | 20.92074 | -89.65801 | 44 ft | 37 kts | 3° |
| 2026-05-03 20:50 | 20.92580 | -89.65792 | 42 ft | 101 kts | 1° |
| 2026-05-03 20:51 | 20.93434 | -89.65775 | 45 ft | 142 kts | 1° |
| 2026-05-03 20:51 | 20.94513 | -89.65751 | 217 ft | 162 kts | 1° |
| 2026-05-03 20:51 | 20.95696 | -89.65707 | 467 ft | 178 kts | 2° |
| 2026-05-03 20:51 | 20.96954 | -89.65653 | 904 ft | 186 kts | 2° |
| 2026-05-03 20:52 | 20.98234 | -89.65612 | 1683 ft | 183 kts | 360° |
| 2026-05-03 20:52 | 20.99524 | -89.65642 | 2503 ft | 191 kts | 356° |
| 2026-05-03 20:52 | 21.00892 | -89.65847 | 3032 ft | 208 kts | 347° |
| 2026-05-03 20:52 | 21.02351 | -89.66285 | 3472 ft | 228 kts | 341° |
| 2026-05-03 20:53 | 21.03943 | -89.66742 | 3946 ft | 250 kts | 349° |
| 2026-05-03 20:53 | 21.05750 | -89.66896 | 4356 ft | 267 kts | 358° |
| 2026-05-03 20:53 | 21.07636 | -89.66895 | 4947 ft | 273 kts | 359° |
| 2026-05-03 20:53 | 21.09522 | -89.66862 | 5586 ft | 276 kts | 360° |
| 2026-05-03 20:54 | 21.11450 | -89.66885 | 6272 ft | 278 kts | 349° |
| 2026-05-03 20:54 | 21.15020 | -89.68454 | 7681 ft | 280 kts | 339° |
| 2026-05-03 20:54 | 21.16886 | -89.69083 | 8420 ft | 283 kts | 343° |
| 2026-05-03 20:55 | 21.18814 | -89.69589 | 9132 ft | 287 kts | 345° |
| 2026-05-03 20:55 | 21.20782 | -89.70033 | 9899 ft | 290 kts | 346° |
| 2026-05-03 20:55 | 21.22791 | -89.70461 | 10412 ft | 303 kts | 347° |
| 2026-05-03 20:55 | 21.24919 | -89.71011 | 10557 ft | 325 kts | 336° |
| 2026-05-03 20:56 | 21.26794 | -89.72427 | 10722 ft | 342 kts | 308° |
| 2026-05-03 20:56 | 21.27863 | -89.74677 | 11197 ft | 348 kts | 284° |
| 2026-05-03 20:56 | 21.28284 | -89.77242 | 11847 ft | 352 kts | 278° |
| 2026-05-03 20:56 | 21.28644 | -89.79855 | 12470 ft | 356 kts | 279° |
| 2026-05-03 20:57 | 21.29019 | -89.82488 | 13136 ft | 359 kts | 279° |
| 2026-05-03 20:57 | 21.29404 | -89.85145 | 13800 ft | 362 kts | 279° |
| 2026-05-03 20:57 | 21.29799 | -89.87830 | 14370 ft | 366 kts | 279° |
| 2026-05-03 20:57 | 21.30198 | -89.90534 | 14987 ft | 368 kts | 279° |
| 2026-05-03 20:58 | 21.30601 | -89.93252 | 15604 ft | 370 kts | 279° |
| 2026-05-03 20:58 | 21.31006 | -89.95987 | 16204 ft | 373 kts | 278° |
| 2026-05-03 20:58 | 21.31415 | -89.98744 | 16782 ft | 376 kts | 278° |
| 2026-05-03 20:58 | 21.31821 | -90.01488 | 17323 ft | 380 kts | 278° |
| 2026-05-03 20:59 | 21.32236 | -90.04297 | 17866 ft | 383 kts | 278° |
| 2026-05-03 20:59 | 21.32654 | -90.07130 | 18409 ft | 386 kts | 278° |
| 2026-05-03 20:59 | 21.33073 | -90.09978 | 18917 ft | 387 kts | 278° |
| 2026-05-03 20:59 | 21.33494 | -90.12834 | 19463 ft | 388 kts | 278° |
| 2026-05-03 21:00 | 21.33914 | -90.15691 | 19998 ft | 388 kts | 278° |
| 2026-05-03 21:00 | 21.34193 | -90.17586 | 20338 ft | 389 kts | 278° |
| 2026-05-03 21:00 | 21.34757 | -90.21431 | 21015 ft | 391 kts | 278° |
| 2026-05-03 21:00 | 21.35179 | -90.24314 | 21508 ft | 392 kts | 278° |
| 2026-05-03 21:01 | 21.35602 | -90.27206 | 21969 ft | 393 kts | 279° |
| 2026-05-03 21:01 | 21.36027 | -90.30111 | 22434 ft | 395 kts | 279° |
| 2026-05-03 21:01 | 21.36453 | -90.33029 | 22893 ft | 396 kts | 279° |
| 2026-05-03 21:01 | 21.36873 | -90.35914 | 23336 ft | 398 kts | 279° |
| 2026-05-03 21:02 | 21.37301 | -90.38850 | 23723 ft | 399 kts | 279° |
| 2026-05-03 21:02 | 21.37730 | -90.41804 | 24014 ft | 402 kts | 279° |
| 2026-05-03 21:02 | 21.38164 | -90.44780 | 24313 ft | 405 kts | 279° |
| 2026-05-03 21:02 | 21.38599 | -90.47768 | 24657 ft | 406 kts | 279° |
| 2026-05-03 21:03 | 21.39035 | -90.50767 | 24990 ft | 407 kts | 279° |
| 2026-05-03 21:03 | 21.39472 | -90.53774 | 25295 ft | 409 kts | 279° |
| 2026-05-03 21:03 | 21.39905 | -90.56758 | 25580 ft | 411 kts | 279° |
| 2026-05-03 21:03 | 21.40345 | -90.59792 | 25888 ft | 413 kts | 278° |
| 2026-05-03 21:04 | 21.40787 | -90.62842 | 26202 ft | 414 kts | 278° |
| 2026-05-03 21:04 | 21.41229 | -90.65902 | 26495 ft | 416 kts | 278° |
| 2026-05-03 21:04 | 21.41672 | -90.68976 | 26780 ft | 417 kts | 278° |
| 2026-05-03 21:04 | 21.42117 | -90.72060 | 27056 ft | 419 kts | 278° |
| 2026-05-03 21:05 | 21.42563 | -90.75158 | 27331 ft | 421 kts | 278° |
| 2026-05-03 21:05 | 21.43010 | -90.78267 | 27602 ft | 423 kts | 278° |
| 2026-05-03 21:05 | 21.43459 | -90.81393 | 27850 ft | 425 kts | 278° |
| 2026-05-03 21:05 | 21.43902 | -90.84485 | 28108 ft | 426 kts | 278° |
| 2026-05-03 21:06 | 21.44352 | -90.87632 | 28377 ft | 427 kts | 278° |
| 2026-05-03 21:06 | 21.44803 | -90.90784 | 28634 ft | 428 kts | 278° |
| 2026-05-03 21:06 | 21.45255 | -90.93951 | 28881 ft | 430 kts | 278° |
| 2026-05-03 21:06 | 21.45708 | -90.97127 | 29117 ft | 431 kts | 278° |
| 2026-05-03 21:07 | 21.46161 | -91.00311 | 29350 ft | 433 kts | 278° |
| 2026-05-03 21:07 | 21.46616 | -91.03511 | 29578 ft | 434 kts | 278° |
| 2026-05-03 21:07 | 21.47071 | -91.06712 | 29853 ft | 434 kts | 278° |
| 2026-05-03 21:07 | 21.47524 | -91.09904 | 30203 ft | 432 kts | 278° |
| 2026-05-03 21:08 | 21.47968 | -91.13044 | 30526 ft | 430 kts | 278° |
| 2026-05-03 21:08 | 21.48416 | -91.16210 | 30809 ft | 429 kts | 278° |
| 2026-05-03 21:08 | 21.48864 | -91.19380 | 31065 ft | 429 kts | 278° |
| 2026-05-03 21:08 | 21.49311 | -91.22549 | 31350 ft | 429 kts | 278° |
| 2026-05-03 21:09 | 21.49755 | -91.25707 | 31662 ft | 428 kts | 278° |
| 2026-05-03 21:09 | 21.50200 | -91.28867 | 31982 ft | 427 kts | 278° |
| 2026-05-03 21:09 | 21.50641 | -91.32013 | 32271 ft | 427 kts | 278° |
| 2026-05-03 21:09 | 21.51083 | -91.35162 | 32564 ft | 426 kts | 278° |
| 2026-05-03 21:10 | 21.51524 | -91.38311 | 32885 ft | 425 kts | 278° |
| 2026-05-03 21:10 | 21.51956 | -91.41401 | 33208 ft | 424 kts | 278° |
| 2026-05-03 21:10 | 21.52393 | -91.44534 | 33519 ft | 424 kts | 278° |
| 2026-05-03 21:10 | 21.52830 | -91.47665 | 33831 ft | 424 kts | 278° |
| 2026-05-03 21:11 | 21.53265 | -91.50792 | 34131 ft | 423 kts | 278° |
| 2026-05-03 21:11 | 21.53699 | -91.53912 | 34392 ft | 423 kts | 278° |
| 2026-05-03 21:11 | 21.54132 | -91.57034 | 34620 ft | 423 kts | 278° |
| 2026-05-03 21:11 | 21.54565 | -91.60155 | 34864 ft | 422 kts | 278° |
| 2026-05-03 21:12 | 21.54996 | -91.63269 | 35119 ft | 421 kts | 277° |
| 2026-05-03 21:12 | 21.55420 | -91.66335 | 35320 ft | 421 kts | 277° |
| 2026-05-03 21:12 | 21.55851 | -91.69454 | 35503 ft | 422 kts | 277° |
| 2026-05-03 21:12 | 21.56281 | -91.72575 | 35711 ft | 422 kts | 277° |
| 2026-05-03 21:13 | 21.56709 | -91.75685 | 35968 ft | 421 kts | 277° |
| 2026-05-03 21:13 | 21.57138 | -91.78803 | 35992 ft | 424 kts | 277° |
| 2026-05-03 21:13 | 21.57995 | -91.85055 | 36004 ft | 421 kts | 277° |
| 2026-05-03 21:14 | 21.58838 | -91.91210 | 36009 ft | 418 kts | 277° |
| 2026-05-03 21:14 | 21.59680 | -91.97377 | 36016 ft | 416 kts | 277° |
| 2026-05-03 21:15 | 21.60514 | -92.03512 | 36023 ft | 414 kts | 277° |
| 2026-05-03 21:15 | 21.61345 | -92.09641 | 36022 ft | 414 kts | 277° |
| 2026-05-03 21:16 | 21.62175 | -92.15774 | 36025 ft | 416 kts | 277° |
| 2026-05-03 21:16 | 21.63000 | -92.21893 | 36025 ft | 417 kts | 277° |
| 2026-05-03 21:17 | 21.63692 | -92.27035 | 36025 ft | 419 kts | 277° |
| 2026-05-03 21:17 | 21.64667 | -92.34305 | 36020 ft | 422 kts | 277° |
| 2026-05-03 21:18 | 21.65503 | -92.40553 | 36022 ft | 423 kts | 277° |
| 2026-05-03 21:18 | 21.66339 | -92.46826 | 36021 ft | 425 kts | 277° |
| 2026-05-03 21:19 | 21.67170 | -92.53076 | 36026 ft | 426 kts | 277° |
| 2026-05-03 21:19 | 21.68006 | -92.59377 | 36026 ft | 426 kts | 277° |
| 2026-05-03 21:20 | 21.68838 | -92.65676 | 36022 ft | 425 kts | 277° |
| 2026-05-03 21:20 | 21.69667 | -92.71963 | 36019 ft | 424 kts | 277° |
| 2026-05-03 21:21 | 21.70492 | -92.78237 | 36028 ft | 423 kts | 277° |
| 2026-05-03 21:21 | 21.71309 | -92.84458 | 36027 ft | 423 kts | 277° |
| 2026-05-03 21:22 | 21.72128 | -92.90708 | 36027 ft | 422 kts | 277° |
| 2026-05-03 21:22 | 21.72943 | -92.96951 | 36031 ft | 421 kts | 277° |
| 2026-05-03 21:23 | 21.73755 | -93.03187 | 36028 ft | 421 kts | 277° |
| 2026-05-03 21:23 | 21.74558 | -93.09380 | 36023 ft | 421 kts | 278° |
| 2026-05-03 21:24 | 21.75365 | -93.15617 | 36034 ft | 421 kts | 278° |
| 2026-05-03 21:24 | 21.76171 | -93.21866 | 36040 ft | 422 kts | 278° |
| 2026-05-03 21:25 | 21.76976 | -93.28122 | 36046 ft | 423 kts | 278° |
| 2026-05-03 21:25 | 21.77775 | -93.34354 | 36032 ft | 423 kts | 278° |
| 2026-05-03 21:26 | 21.78576 | -93.40619 | 36032 ft | 422 kts | 278° |
| 2026-05-03 21:26 | 21.79373 | -93.46873 | 36031 ft | 422 kts | 278° |
| 2026-05-03 21:27 | 21.80166 | -93.53120 | 36035 ft | 421 kts | 278° |
| 2026-05-03 21:27 | 21.80951 | -93.59315 | 36036 ft | 420 kts | 278° |
| 2026-05-03 21:28 | 21.81737 | -93.65538 | 36035 ft | 420 kts | 278° |
| 2026-05-03 21:28 | 21.82520 | -93.71757 | 36035 ft | 419 kts | 278° |
| 2026-05-03 21:29 | 21.83293 | -93.77972 | 36035 ft | 419 kts | 277° |
| 2026-05-03 21:29 | 21.84058 | -93.84187 | 36028 ft | 419 kts | 278° |
| 2026-05-03 21:30 | 21.84816 | -93.90362 | 36042 ft | 419 kts | 278° |
| 2026-05-03 21:30 | 21.85579 | -93.96589 | 36033 ft | 420 kts | 278° |
| 2026-05-03 21:31 | 21.86341 | -94.02825 | 36040 ft | 421 kts | 278° |
| 2026-05-03 21:31 | 21.87102 | -94.09074 | 36037 ft | 421 kts | 278° |
| 2026-05-03 21:32 | 21.87861 | -94.15325 | 36039 ft | 421 kts | 277° |
| 2026-05-03 21:32 | 21.88614 | -94.21546 | 36036 ft | 422 kts | 278° |
| 2026-05-03 21:33 | 21.89369 | -94.27807 | 36042 ft | 422 kts | 278° |
| 2026-05-03 21:33 | 21.90123 | -94.34076 | 36039 ft | 422 kts | 278° |
| 2026-05-03 21:34 | 21.90874 | -94.40348 | 36038 ft | 422 kts | 278° |
| 2026-05-03 21:34 | 21.91619 | -94.46580 | 36045 ft | 422 kts | 277° |
| 2026-05-03 21:35 | 21.92366 | -94.52855 | 36047 ft | 422 kts | 277° |
| 2026-05-03 21:35 | 21.93110 | -94.59128 | 36053 ft | 422 kts | 277° |
| 2026-05-03 21:36 | 21.93852 | -94.65397 | 36045 ft | 422 kts | 277° |
| 2026-05-03 21:36 | 21.94591 | -94.71665 | 36047 ft | 421 kts | 277° |
| 2026-05-03 21:37 | 21.95321 | -94.77881 | 36047 ft | 421 kts | 277° |
| 2026-05-03 21:37 | 21.96053 | -94.84135 | 36048 ft | 420 kts | 277° |
| 2026-05-03 21:38 | 21.96782 | -94.90375 | 36053 ft | 420 kts | 277° |
| 2026-05-03 21:38 | 21.97508 | -94.96617 | 36048 ft | 420 kts | 277° |
| 2026-05-03 21:39 | 21.98234 | -95.02854 | 36054 ft | 419 kts | 278° |
| 2026-05-03 21:39 | 21.98962 | -95.09043 | 36055 ft | 419 kts | 278° |
| 2026-05-03 21:40 | 21.99695 | -95.15282 | 36054 ft | 420 kts | 277° |
| 2026-05-03 21:40 | 22.00425 | -95.21525 | 36058 ft | 420 kts | 277° |
| 2026-05-03 21:41 | 22.01152 | -95.27771 | 36058 ft | 420 kts | 277° |
| 2026-05-03 21:41 | 22.01878 | -95.34029 | 36065 ft | 421 kts | 278° |
| 2026-05-03 21:42 | 22.02597 | -95.40250 | 36060 ft | 421 kts | 278° |
| 2026-05-03 21:42 | 22.03319 | -95.46512 | 36060 ft | 421 kts | 278° |
| 2026-05-03 21:43 | 22.04037 | -95.52771 | 36084 ft | 421 kts | 277° |
| 2026-05-03 21:43 | 22.04753 | -95.59022 | 36067 ft | 420 kts | 277° |
| 2026-05-03 21:44 | 22.05459 | -95.65216 | 36061 ft | 418 kts | 277° |
| 2026-05-03 21:44 | 22.06165 | -95.71427 | 36059 ft | 417 kts | 277° |
| 2026-05-03 21:45 | 22.06867 | -95.77618 | 36064 ft | 415 kts | 277° |
| 2026-05-03 21:45 | 22.07564 | -95.83794 | 36068 ft | 415 kts | 277° |
| 2026-05-03 21:46 | 22.08258 | -95.89964 | 36069 ft | 414 kts | 277° |
| 2026-05-03 21:46 | 22.08945 | -95.96088 | 36074 ft | 414 kts | 277° |
| 2026-05-03 21:47 | 22.09634 | -96.02259 | 36074 ft | 415 kts | 277° |
| 2026-05-03 21:47 | 22.10322 | -96.08437 | 36075 ft | 415 kts | 277° |
| 2026-05-03 21:48 | 22.11009 | -96.14629 | 36081 ft | 416 kts | 277° |
| 2026-05-03 21:48 | 22.11690 | -96.20788 | 36082 ft | 417 kts | 277° |
| 2026-05-03 21:49 | 22.12375 | -96.27002 | 36075 ft | 417 kts | 277° |
| 2026-05-03 21:49 | 22.13058 | -96.33223 | 36079 ft | 418 kts | 277° |
| 2026-05-03 21:50 | 22.13739 | -96.39449 | 36078 ft | 418 kts | 277° |
| 2026-05-03 21:50 | 22.14415 | -96.45645 | 36076 ft | 419 kts | 277° |
| 2026-05-03 21:51 | 22.15092 | -96.51879 | 36073 ft | 418 kts | 277° |
| 2026-05-03 21:51 | 22.15762 | -96.58110 | 36081 ft | 418 kts | 277° |
| 2026-05-03 21:52 | 22.16421 | -96.64342 | 36080 ft | 418 kts | 277° |
| 2026-05-03 21:52 | 22.17077 | -96.70579 | 36082 ft | 418 kts | 277° |
| 2026-05-03 21:53 | 22.17728 | -96.76771 | 36081 ft | 418 kts | 277° |
| 2026-05-03 21:53 | 22.18382 | -96.83012 | 36092 ft | 419 kts | 277° |
| 2026-05-03 21:54 | 22.19034 | -96.89261 | 36077 ft | 419 kts | 277° |
| 2026-05-03 21:54 | 22.19683 | -96.95508 | 36079 ft | 419 kts | 277° |
| 2026-05-03 21:55 | 22.20326 | -97.01709 | 36087 ft | 418 kts | 277° |
| 2026-05-03 21:55 | 22.20970 | -97.07950 | 36094 ft | 418 kts | 277° |
| 2026-05-03 21:56 | 22.21611 | -97.14189 | 36084 ft | 419 kts | 277° |
| 2026-05-03 21:56 | 22.22251 | -97.20436 | 36088 ft | 418 kts | 277° |
| 2026-05-03 21:57 | 22.22887 | -97.26676 | 36085 ft | 418 kts | 277° |
| 2026-05-03 21:57 | 22.23516 | -97.32863 | 36094 ft | 418 kts | 277° |
| 2026-05-03 21:58 | 22.24148 | -97.39096 | 36094 ft | 418 kts | 277° |
| 2026-05-03 21:58 | 22.24783 | -97.45326 | 36090 ft | 417 kts | 277° |
| 2026-05-03 21:59 | 22.25322 | -97.50498 | 36095 ft | 417 kts | 278° |
| 2026-05-03 21:59 | 22.26074 | -97.57726 | 36109 ft | 417 kts | 277° |
| 2026-05-03 22:00 | 22.26716 | -97.63946 | 36119 ft | 417 kts | 277° |
| 2026-05-03 22:00 | 22.27246 | -97.69111 | 36132 ft | 417 kts | 277° |
| 2026-05-03 22:01 | 22.27884 | -97.75336 | 36147 ft | 417 kts | 277° |
| 2026-05-03 22:01 | 22.28519 | -97.81559 | 36121 ft | 417 kts | 277° |
| 2026-05-03 22:02 | 22.28477 | -97.87809 | 36126 ft | 419 kts | 264° |
| 2026-05-03 22:02 | 22.27034 | -97.93878 | 36125 ft | 421 kts | 257° |
| 2026-05-03 22:03 | 22.25389 | -97.99945 | 36102 ft | 421 kts | 257° |
| 2026-05-03 22:03 | 22.23774 | -98.06015 | 36113 ft | 421 kts | 257° |
| 2026-05-03 22:04 | 22.22161 | -98.12094 | 36108 ft | 422 kts | 257° |
| 2026-05-03 22:04 | 22.20543 | -98.18181 | 36095 ft | 422 kts | 257° |
| 2026-05-03 22:05 | 22.18930 | -98.24239 | 36088 ft | 423 kts | 257° |
| 2026-05-03 22:05 | 22.17300 | -98.30346 | 36089 ft | 424 kts | 257° |
| 2026-05-03 22:06 | 22.15670 | -98.36465 | 36081 ft | 425 kts | 257° |
| 2026-05-03 22:06 | 22.14038 | -98.42591 | 36088 ft | 425 kts | 257° |
| 2026-05-03 22:07 | 22.12413 | -98.48681 | 36089 ft | 425 kts | 257° |
| 2026-05-03 22:07 | 22.10775 | -98.54809 | 36087 ft | 426 kts | 257° |
| 2026-05-03 22:08 | 22.09134 | -98.60940 | 36089 ft | 426 kts | 257° |
| 2026-05-03 22:08 | 22.07489 | -98.67073 | 36091 ft | 426 kts | 257° |
| 2026-05-03 22:09 | 22.05856 | -98.73158 | 36081 ft | 426 kts | 257° |
| 2026-05-03 22:10 | 22.04096 | -98.82460 | 36096 ft | 420 kts | 271° |
| 2026-05-03 22:10 | 22.04617 | -98.88700 | 36095 ft | 418 kts | 278° |
| 2026-05-03 22:11 | 22.05331 | -98.94929 | 36092 ft | 419 kts | 278° |
| 2026-05-03 22:11 | 22.06015 | -99.01128 | 36082 ft | 420 kts | 278° |
| 2026-05-03 22:12 | 22.06692 | -99.07375 | 36084 ft | 420 kts | 278° |
| 2026-05-03 22:12 | 22.07365 | -99.13630 | 36085 ft | 420 kts | 278° |
| 2026-05-03 22:13 | 22.08036 | -99.19882 | 36094 ft | 420 kts | 278° |
| 2026-05-03 22:13 | 22.08705 | -99.26137 | 36086 ft | 420 kts | 278° |
| 2026-05-03 22:14 | 22.09367 | -99.32352 | 36083 ft | 421 kts | 278° |
| 2026-05-03 22:14 | 22.10033 | -99.38622 | 36080 ft | 421 kts | 278° |
| 2026-05-03 22:15 | 22.10697 | -99.44892 | 36071 ft | 421 kts | 278° |
| 2026-05-03 22:15 | 22.11357 | -99.51159 | 36067 ft | 421 kts | 278° |
| 2026-05-03 22:16 | 22.12011 | -99.57378 | 36051 ft | 421 kts | 278° |
| 2026-05-03 22:16 | 22.12667 | -99.63650 | 36051 ft | 421 kts | 278° |
| 2026-05-03 22:17 | 22.13320 | -99.69918 | 36024 ft | 420 kts | 278° |
| 2026-05-03 22:17 | 22.13971 | -99.76183 | 36013 ft | 420 kts | 278° |
| 2026-05-03 22:18 | 22.14619 | -99.82445 | 36020 ft | 420 kts | 278° |
| 2026-05-03 22:18 | 22.15261 | -99.88672 | 35997 ft | 420 kts | 277° |
| 2026-05-03 22:19 | 22.15905 | -99.94943 | 35998 ft | 421 kts | 277° |
| 2026-05-03 22:19 | 22.16547 | -100.01215 | 35977 ft | 421 kts | 277° |
| 2026-05-03 22:20 | 22.17187 | -100.07484 | 35976 ft | 420 kts | 277° |
| 2026-05-03 22:20 | 22.17820 | -100.13704 | 35977 ft | 420 kts | 277° |
| 2026-05-03 22:21 | 22.18455 | -100.19963 | 35970 ft | 420 kts | 277° |
| 2026-05-03 22:21 | 22.19088 | -100.26220 | 35980 ft | 419 kts | 277° |
| 2026-05-03 22:22 | 22.19718 | -100.32475 | 35976 ft | 419 kts | 277° |
| 2026-05-03 22:22 | 22.20344 | -100.38724 | 35988 ft | 419 kts | 277° |
| 2026-05-03 22:23 | 22.20964 | -100.44926 | 35978 ft | 418 kts | 277° |
| 2026-05-03 22:23 | 22.21583 | -100.51165 | 35973 ft | 418 kts | 277° |
| 2026-05-03 22:24 | 22.22188 | -100.57398 | 35996 ft | 417 kts | 277° |
| 2026-05-03 22:24 | 22.22785 | -100.63585 | 36047 ft | 417 kts | 277° |
| 2026-05-03 22:25 | 22.23385 | -100.69816 | 36094 ft | 418 kts | 277° |
| 2026-05-03 22:25 | 22.23984 | -100.76052 | 36149 ft | 418 kts | 277° |
| 2026-05-03 22:26 | 22.24582 | -100.82294 | 36206 ft | 418 kts | 277° |
| 2026-05-03 22:26 | 22.25167 | -100.88552 | 36205 ft | 419 kts | 275° |
| 2026-05-03 22:27 | 22.24638 | -100.94789 | 36215 ft | 424 kts | 260° |
| 2026-05-03 22:27 | 22.22648 | -101.00808 | 36225 ft | 428 kts | 250° |
| 2026-05-03 22:28 | 22.20306 | -101.06719 | 36167 ft | 428 kts | 251° |
| 2026-05-03 22:28 | 22.17991 | -101.12642 | 36081 ft | 429 kts | 251° |
| 2026-05-03 22:29 | 22.15689 | -101.18572 | 36021 ft | 428 kts | 251° |
| 2026-05-03 22:29 | 22.13403 | -101.24462 | 35957 ft | 429 kts | 251° |
| 2026-05-03 22:30 | 22.11096 | -101.30398 | 35908 ft | 429 kts | 251° |
| 2026-05-03 22:30 | 22.08784 | -101.36336 | 35881 ft | 429 kts | 251° |
| 2026-05-03 22:31 | 22.06478 | -101.42268 | 35888 ft | 429 kts | 251° |
| 2026-05-03 22:31 | 22.04186 | -101.48162 | 35850 ft | 429 kts | 251° |
| 2026-05-03 22:32 | 22.01877 | -101.54094 | 35860 ft | 429 kts | 251° |
| 2026-05-03 22:32 | 21.99561 | -101.60035 | 35858 ft | 430 kts | 251° |
| 2026-05-03 22:33 | 21.97239 | -101.65977 | 35849 ft | 431 kts | 251° |
| 2026-05-03 22:33 | 21.94926 | -101.71879 | 35846 ft | 431 kts | 251° |
| 2026-05-03 22:34 | 21.92594 | -101.77826 | 35844 ft | 431 kts | 251° |
| 2026-05-03 22:34 | 21.90259 | -101.83771 | 35841 ft | 431 kts | 251° |
| 2026-05-03 22:35 | 21.87905 | -101.89710 | 35834 ft | 432 kts | 250° |
| 2026-05-03 22:35 | 21.85556 | -101.95619 | 35838 ft | 432 kts | 250° |
| 2026-05-03 22:36 | 21.83192 | -102.01568 | 35835 ft | 432 kts | 250° |
| 2026-05-03 22:36 | 21.80827 | -102.07514 | 35826 ft | 432 kts | 250° |
| 2026-05-03 22:37 | 21.78826 | -102.12540 | 35816 ft | 432 kts | 250° |
| 2026-05-03 22:37 | 21.76458 | -102.18482 | 35818 ft | 432 kts | 250° |
| 2026-05-03 22:37 | 21.75289 | -102.21412 | 36185 ft | 431 kts | 250° |
| 2026-05-03 22:38 | 21.74106 | -102.24376 | 36211 ft | 431 kts | 250° |
| 2026-05-03 22:38 | 21.72187 | -102.30419 | 36199 ft | 423 kts | 268° |
| 2026-05-03 22:39 | 21.72803 | -102.36605 | 36220 ft | 417 kts | 290° |
| 2026-05-03 22:39 | 21.75003 | -102.42374 | 36176 ft | 417 kts | 293° |
| 2026-05-03 22:40 | 21.77260 | -102.48075 | 36094 ft | 417 kts | 293° |
| 2026-05-03 22:40 | 21.79494 | -102.53839 | 36009 ft | 418 kts | 292° |
| 2026-05-03 22:40 | 21.80600 | -102.56727 | 35804 ft | 418 kts | 292° |
| 2026-05-03 22:41 | 21.81704 | -102.59619 | 35811 ft | 418 kts | 292° |
| 2026-05-03 22:41 | 21.83908 | -102.65406 | 35823 ft | 418 kts | 292° |
| 2026-05-03 22:42 | 21.86099 | -102.71165 | 35814 ft | 419 kts | 292° |
| 2026-05-03 22:42 | 21.88306 | -102.76971 | 35817 ft | 419 kts | 292° |
| 2026-05-03 22:43 | 21.90512 | -102.82782 | 35829 ft | 419 kts | 292° |
| 2026-05-03 22:43 | 21.92713 | -102.88586 | 35840 ft | 419 kts | 292° |
| 2026-05-03 22:44 | 21.94899 | -102.94358 | 35855 ft | 419 kts | 292° |
| 2026-05-03 22:44 | 21.97080 | -103.00158 | 35843 ft | 417 kts | 292° |
| 2026-05-03 22:45 | 21.99239 | -103.05921 | 35858 ft | 414 kts | 292° |
| 2026-05-03 22:45 | 22.01394 | -103.11673 | 35859 ft | 414 kts | 292° |
| 2026-05-03 22:46 | 22.03546 | -103.17421 | 35859 ft | 413 kts | 292° |
| 2026-05-03 22:46 | 22.05686 | -103.23121 | 35867 ft | 413 kts | 292° |
| 2026-05-03 22:47 | 22.07840 | -103.28867 | 35872 ft | 413 kts | 292° |
| 2026-05-03 22:47 | 22.09989 | -103.34610 | 35867 ft | 413 kts | 292° |
| 2026-05-03 22:48 | 22.12136 | -103.40357 | 35878 ft | 413 kts | 292° |
| 2026-05-03 22:48 | 22.14267 | -103.46065 | 35872 ft | 413 kts | 292° |
| 2026-05-03 22:49 | 22.16406 | -103.51804 | 35880 ft | 412 kts | 292° |
| 2026-05-03 22:49 | 22.18540 | -103.57535 | 35872 ft | 412 kts | 292° |
| 2026-05-03 22:50 | 22.20670 | -103.63264 | 35898 ft | 411 kts | 292° |
| 2026-05-03 22:50 | 22.22798 | -103.68996 | 35916 ft | 412 kts | 292° |
| 2026-05-03 22:51 | 22.24915 | -103.74704 | 35890 ft | 413 kts | 292° |
| 2026-05-03 22:51 | 22.27040 | -103.80441 | 35898 ft | 411 kts | 292° |
| 2026-05-03 22:52 | 22.29154 | -103.86154 | 35932 ft | 409 kts | 292° |
| 2026-05-03 22:52 | 22.31268 | -103.91869 | 35918 ft | 410 kts | 291° |
| 2026-05-03 22:53 | 22.33393 | -103.97595 | 35931 ft | 410 kts | 292° |
| 2026-05-03 22:53 | 22.35504 | -104.03284 | 35933 ft | 412 kts | 292° |
| 2026-05-03 22:54 | 22.37634 | -104.09039 | 35936 ft | 413 kts | 292° |
| 2026-05-03 22:54 | 22.39761 | -104.14792 | 35946 ft | 412 kts | 291° |
| 2026-05-03 22:55 | 22.41882 | -104.20537 | 35945 ft | 411 kts | 291° |
| 2026-05-03 22:55 | 22.43983 | -104.26238 | 35946 ft | 411 kts | 291° |
| 2026-05-03 22:56 | 22.46086 | -104.31986 | 35954 ft | 411 kts | 291° |
| 2026-05-03 22:56 | 22.48191 | -104.37759 | 35966 ft | 415 kts | 291° |
| 2026-05-03 22:57 | 22.50301 | -104.43556 | 35963 ft | 414 kts | 291° |
| 2026-05-03 22:57 | 22.52387 | -104.49289 | 35988 ft | 411 kts | 291° |
| 2026-05-03 22:57 | 22.53443 | -104.52193 | 35433 ft | 419 kts | 291° |
| 2026-05-03 22:58 | 22.54503 | -104.55112 | 34866 ft | 417 kts | 291° |
| 2026-05-03 22:58 | 22.55566 | -104.58041 | 34118 ft | 419 kts | 291° |
| 2026-05-03 22:58 | 22.56628 | -104.60966 | 33532 ft | 415 kts | 291° |
| 2026-05-03 22:58 | 22.57678 | -104.63863 | 32915 ft | 413 kts | 291° |
| 2026-05-03 22:59 | 22.58719 | -104.66736 | 32410 ft | 408 kts | 291° |
| 2026-05-03 22:59 | 22.59748 | -104.69578 | 31883 ft | 404 kts | 291° |
| 2026-05-03 22:59 | 22.60779 | -104.72403 | 31214 ft | 405 kts | 292° |
| 2026-05-03 22:59 | 22.61821 | -104.75223 | 30691 ft | 402 kts | 292° |
| 2026-05-03 23:00 | 22.62844 | -104.77988 | 30159 ft | 401 kts | 292° |
| 2026-05-03 23:00 | 22.63875 | -104.80780 | 29586 ft | 399 kts | 292° |
| 2026-05-03 23:00 | 22.64898 | -104.83556 | 29050 ft | 395 kts | 292° |
| 2026-05-03 23:00 | 22.65911 | -104.86309 | 28525 ft | 392 kts | 292° |
| 2026-05-03 23:01 | 22.66910 | -104.89040 | 27909 ft | 391 kts | 292° |
| 2026-05-03 23:01 | 22.67898 | -104.91775 | 27381 ft | 388 kts | 291° |
| 2026-05-03 23:01 | 22.68873 | -104.94492 | 26847 ft | 386 kts | 292° |
| 2026-05-03 23:01 | 22.69842 | -104.97189 | 26348 ft | 383 kts | 291° |
| 2026-05-03 23:02 | 22.70792 | -104.99834 | 25856 ft | 381 kts | 292° |
| 2026-05-03 23:02 | 22.71749 | -105.02498 | 25352 ft | 379 kts | 291° |
| 2026-05-03 23:02 | 22.72702 | -105.05153 | 24843 ft | 377 kts | 291° |
| 2026-05-03 23:02 | 22.73652 | -105.07800 | 24316 ft | 376 kts | 291° |
| 2026-05-03 23:03 | 22.74597 | -105.10434 | 23829 ft | 375 kts | 291° |
| 2026-05-03 23:03 | 22.75539 | -105.13063 | 23258 ft | 374 kts | 291° |
| 2026-05-03 23:03 | 22.76477 | -105.15681 | 22721 ft | 371 kts | 291° |
| 2026-05-03 23:03 | 22.77406 | -105.18272 | 22196 ft | 367 kts | 291° |
| 2026-05-03 23:04 | 22.78326 | -105.20840 | 21733 ft | 364 kts | 291° |
| 2026-05-03 23:04 | 22.79225 | -105.23355 | 21201 ft | 361 kts | 291° |
| 2026-05-03 23:04 | 22.80129 | -105.25883 | 20747 ft | 358 kts | 291° |
| 2026-05-03 23:04 | 22.81028 | -105.28398 | 20251 ft | 357 kts | 291° |
| 2026-05-03 23:05 | 22.81923 | -105.30902 | 19771 ft | 356 kts | 291° |
| 2026-05-03 23:05 | 22.82815 | -105.33402 | 19273 ft | 355 kts | 291° |
| 2026-05-03 23:05 | 22.83703 | -105.35890 | 18770 ft | 354 kts | 291° |
| 2026-05-03 23:05 | 22.84589 | -105.38374 | 18280 ft | 353 kts | 291° |
| 2026-05-03 23:06 | 22.85473 | -105.40858 | 17738 ft | 353 kts | 291° |
| 2026-05-03 23:06 | 22.86354 | -105.43329 | 17253 ft | 349 kts | 291° |
| 2026-05-03 23:06 | 22.87213 | -105.45741 | 16766 ft | 347 kts | 291° |
| 2026-05-03 23:06 | 22.88076 | -105.48168 | 16295 ft | 344 kts | 291° |
| 2026-05-03 23:07 | 22.88933 | -105.50577 | 15817 ft | 341 kts | 291° |
| 2026-05-03 23:07 | 22.89782 | -105.52968 | 15346 ft | 339 kts | 291° |
| 2026-05-03 23:07 | 22.90626 | -105.55342 | 14874 ft | 337 kts | 290° |
| 2026-05-03 23:07 | 22.91466 | -105.57709 | 14383 ft | 336 kts | 290° |
| 2026-05-03 23:08 | 22.92304 | -105.60067 | 13896 ft | 334 kts | 290° |
| 2026-05-03 23:08 | 22.93141 | -105.62409 | 13418 ft | 332 kts | 290° |
| 2026-05-03 23:08 | 22.93974 | -105.64733 | 12924 ft | 329 kts | 290° |
| 2026-05-03 23:08 | 22.94799 | -105.67036 | 12477 ft | 326 kts | 290° |
| 2026-05-03 23:09 | 22.95607 | -105.69295 | 12040 ft | 324 kts | 290° |
| 2026-05-03 23:09 | 22.96418 | -105.71565 | 11619 ft | 321 kts | 291° |
| 2026-05-03 23:09 | 22.97224 | -105.73819 | 11178 ft | 320 kts | 291° |
| 2026-05-03 23:09 | 22.98024 | -105.76060 | 10745 ft | 318 kts | 290° |
| 2026-05-03 23:10 | 22.98820 | -105.78290 | 10311 ft | 316 kts | 290° |
| 2026-05-03 23:10 | 22.99610 | -105.80507 | 9889 ft | 314 kts | 290° |
| 2026-05-03 23:10 | 23.00376 | -105.82654 | 9909 ft | 296 kts | 290° |
| 2026-05-03 23:10 | 23.01101 | -105.84688 | 9877 ft | 281 kts | 290° |
| 2026-05-03 23:11 | 23.01780 | -105.86599 | 9563 ft | 275 kts | 290° |
| 2026-05-03 23:11 | 23.02482 | -105.88584 | 9086 ft | 278 kts | 290° |
| 2026-05-03 23:11 | 23.03150 | -105.90471 | 9017 ft | 259 kts | 290° |
| 2026-05-03 23:11 | 23.03776 | -105.92237 | 8885 ft | 243 kts | 290° |
| 2026-05-03 23:12 | 23.04360 | -105.93890 | 8787 ft | 226 kts | 290° |
| 2026-05-03 23:12 | 23.04906 | -105.95435 | 8653 ft | 212 kts | 289° |
| 2026-05-03 23:12 | 23.05414 | -105.96874 | 8560 ft | 196 kts | 289° |
| 2026-05-03 23:12 | 23.05889 | -105.98214 | 8353 ft | 187 kts | 289° |
| 2026-05-03 23:13 | 23.06353 | -105.99527 | 8023 ft | 185 kts | 290° |
| 2026-05-03 23:13 | 23.07103 | -106.00636 | 7620 ft | 191 kts | 322° |
| 2026-05-03 23:13 | 23.08191 | -106.01454 | 7268 ft | 191 kts | 320° |
| 2026-05-03 23:13 | 23.09250 | -106.02334 | 6889 ft | 192 kts | 320° |
| 2026-05-03 23:14 | 23.10306 | -106.03220 | 6567 ft | 192 kts | 320° |
| 2026-05-03 23:14 | 23.11366 | -106.04110 | 6207 ft | 194 kts | 321° |
| 2026-05-03 23:14 | 23.12428 | -106.05001 | 5902 ft | 191 kts | 320° |
| 2026-05-03 23:14 | 23.13323 | -106.05752 | 5593 ft | 192 kts | 320° |
| 2026-05-03 23:15 | 23.13577 | -106.05966 | 5499 ft | 192 kts | 321° |
| 2026-05-03 23:15 | 23.14606 | -106.06854 | 5154 ft | 190 kts | 313° |
| 2026-05-03 23:15 | 23.15168 | -106.08094 | 4756 ft | 184 kts | 268° |
| 2026-05-03 23:15 | 23.15164 | -106.09427 | 4551 ft | 175 kts | 269° |
| 2026-05-03 23:16 | 23.15215 | -106.10845 | 3829 ft | 199 kts | 270° |
| 2026-05-03 23:16 | 23.15289 | -106.12387 | 3334 ft | 203 kts | 272° |
| 2026-05-03 23:16 | 23.15383 | -106.13920 | 2785 ft | 206 kts | 272° |
| 2026-05-03 23:16 | 23.15479 | -106.15475 | 2176 ft | 204 kts | 272° |
| 2026-05-03 23:17 | 23.15573 | -106.16989 | 1608 ft | 197 kts | 273° |
| 2026-05-03 23:17 | 23.15662 | -106.18427 | 1244 ft | 181 kts | 273° |
| 2026-05-03 23:17 | 23.15743 | -106.19708 | 1045 ft | 165 kts | 271° |
| 2026-05-03 23:17 | 23.15815 | -106.20886 | 825 ft | 149 kts | 271° |
| 2026-05-03 23:18 | 23.15882 | -106.21971 | 658 ft | 143 kts | 272° |
| 2026-05-03 23:18 | 23.15949 | -106.23080 | 469 ft | 144 kts | 272° |
| 2026-05-03 23:18 | 23.16016 | -106.24120 | 228 ft | 137 kts | 275° |
| 2026-05-03 23:18 | 23.16080 | -106.25173 | 95 ft | 136 kts | 273° |
| 2026-05-03 23:19 | 23.16147 | -106.26161 | 35 ft | 121 kts | 274° |
| 2026-05-03 23:19 | 23.16172 | -106.26896 | 35 ft | 67 kts | 275° |
| 2026-05-03 23:19 | 23.16185 | -106.27222 | 35 ft | 38 kts | 273° |
| 2026-05-03 23:19 | 23.16226 | -106.27390 | 35 ft | 10 kts | 33° |
| 2026-05-03 23:20 | 23.16258 | -106.27325 | 35 ft | 10 kts | 61° |
| 2026-05-03 23:20 | 23.16290 | -106.27262 | 33 ft | 9 kts | 62° |
| 2026-05-03 23:20 | 23.16338 | -106.27219 | 35 ft | 9 kts | 18° |
| 2026-05-03 23:20 | 23.16400 | -106.27207 | 35 ft | 9 kts | 6° |
| 2026-05-03 23:21 | 23.16460 | -106.27204 | 35 ft | 4 kts | 2° |
| 2026-05-03 23:21 | 23.16461 | -106.27204 | 35 ft | 0 kts | 3° |